Time;durP1;ratioP1;P1;durP2;ratioP2;P2;SDS_P1;SDS_P2;PMS_P1;PMS_P2;Temp;Humidity;BMP_temperature;BMP_pressure;BME280_temperature;BME280_humidity;BME280_pressure;Samples;Min_cycle;Max_cycle;Signal;HPM_P1;HPM_P2
2023/05/04 00:00:04;;;;;;;;;;;;;;;11.62;99.46;95308.41;5094815;28;981;-56
2023/05/04 00:02:30;;;;;;;;;;;;;;;11.57;99.96;95310.75;5094507;28;1085;-56
2023/05/04 00:04:56;;;;;;;;;;;;;;;11.54;100.00;95311.91;5093506;28;965;-56
2023/05/04 00:07:22;;;;;;;;;;;;;;;11.52;99.87;95309.41;5094386;28;924;-56
2023/05/04 00:09:49;;;;;;;;;;;;;;;11.55;100.00;95308.22;5094604;28;981;-56
2023/05/04 00:12:15;;;;;;;;;;;;;;;11.49;100.00;95307.03;5094375;28;2000;-56
2023/05/04 00:14:42;;;;;;;;;;;;;;;11.59;100.00;95309.59;5093350;28;973;-56
2023/05/04 00:17:08;;;;;;;;;;;;;;;11.65;99.44;95305.44;5094471;28;965;-56
2023/05/04 00:19:35;;;;;;;;;;;;;;;11.80;98.69;95297.56;5094240;28;1592;-56
2023/05/04 00:22:01;;;;;;;;;;;;;;;11.86;97.94;95302.28;5094276;28;1043;-56
2023/05/04 00:24:27;;;;;;;;;;;;;;;11.87;97.07;95301.25;5093050;28;1021;-56
2023/05/04 00:26:53;;;;;;;;;;;;;;;11.86;96.62;95305.78;5093206;28;1047;-56
2023/05/04 00:29:19;;;;;;;;;;;;;;;11.81;97.29;95308.13;5094091;28;1077;-56
2023/05/04 00:31:46;;;;;;;;;;;;;;;11.88;96.79;95308.31;5093983;28;1934;-56
2023/05/04 00:34:12;;;;;;;;;;;;;;;11.90;96.48;95303.66;5094166;28;968;-56
2023/05/04 00:36:38;;;;;;;;;;;;;;;11.94;96.15;95301.47;5093853;28;1096;-56
2023/05/04 00:39:04;;;;;;;;;;;;;;;11.97;95.80;95301.13;5093977;28;976;-56
2023/05/04 00:41:30;;;;;;;;;;;;;;;12.01;95.37;95302.47;5094141;28;1016;-56
2023/05/04 00:43:58;;;;;;;;;;;;;;;11.99;95.24;95305.34;5094020;28;1100;-56
2023/05/04 00:46:25;;;;;;;;;;;;;;;11.99;95.29;95312.53;5094032;28;1032;-56
2023/05/04 00:48:51;;;;;;;;;;;;;;;11.98;95.14;95306.34;5093821;28;1960;-56
2023/05/04 00:51:19;;;;;;;;;;;;;;;11.94;96.04;95305.00;5093857;28;2001;-56
2023/05/04 00:53:46;;;;;;;;;;;;;;;11.84;96.67;95304.28;5093490;28;1109;-56
2023/05/04 00:56:12;;;;;;;;;;;;;;;11.78;97.07;95311.16;5093708;28;1237;-56
2023/05/04 00:58:38;;;;;;;;;;;;;;;11.75;96.95;95314.13;5093788;28;1067;-56
2023/05/04 01:01:04;;;;;;;;;;;;;;;11.51;96.55;95315.78;5093750;28;984;-56
2023/05/04 01:03:31;;;;;;;;;;;;;;;11.38;97.61;95315.34;5093622;28;1069;-56
2023/05/04 01:06:09;;;;;;;;;;;;;;;11.46;97.64;95312.72;5093643;28;1047;-56
2023/05/04 01:08:37;;;;;;;;;;;;;;;11.62;97.15;95311.94;5093373;28;958;-56
2023/05/04 01:11:09;;;;;;;;;;;;;;;11.73;96.99;95321.50;5093492;28;2005;-56
2023/05/04 01:13:36;;;;;;;;;;;;;;;11.84;97.60;95321.19;5093619;28;950;-56
2023/05/04 01:16:02;;;;;;;;;;;;;;;11.82;97.44;95327.69;5093471;28;1041;-56
2023/05/04 01:18:29;;;;;;;;;;;;;;;11.62;98.53;95321.81;5093492;28;968;-56
2023/05/04 01:20:55;;;;;;;;;;;;;;;11.63;98.14;95320.78;5093293;28;1032;-56
2023/05/04 01:23:21;;;;;;;;;;;;;;;11.55;98.71;95323.47;5093497;28;1223;-56
2023/05/04 01:25:51;;;;;;;;;;;;;;;11.44;99.93;95329.94;5093490;28;977;-56
2023/05/04 01:28:19;;;;;;;;;;;;;;;11.48;99.88;95316.09;5093464;28;1105;-56
2023/05/04 01:30:50;;;;;;;;;;;;;;;11.59;99.81;95317.63;5093242;28;1921;-56
2023/05/04 01:33:17;;;;;;;;;;;;;;;11.60;99.64;95316.59;5093422;28;1124;-56
2023/05/04 01:35:43;;;;;;;;;;;;;;;11.64;99.82;95315.28;5093462;28;969;-56
2023/05/04 01:38:09;;;;;;;;;;;;;;;11.60;100.00;95316.59;5093494;28;1067;-56
2023/05/04 01:40:35;;;;;;;;;;;;;;;11.60;100.00;95319.28;5093307;28;1033;-56
2023/05/04 01:43:01;;;;;;;;;;;;;;;11.74;100.00;95304.41;5093340;28;965;-56
2023/05/04 01:45:27;;;;;;;;;;;;;;;11.84;100.00;95310.47;5093284;28;1033;-56
2023/05/04 01:47:53;;;;;;;;;;;;;;;11.79;100.00;95310.13;5093129;28;1081;-56
2023/05/04 01:50:19;;;;;;;;;;;;;;;11.81;100.00;95313.47;5092261;28;1039;-56
2023/05/04 01:52:45;;;;;;;;;;;;;;;11.86;100.00;95307.63;5093135;28;1987;-56
2023/05/04 01:55:11;;;;;;;;;;;;;;;11.90;100.00;95309.00;5093064;28;1144;-56
2023/05/04 01:57:38;;;;;;;;;;;;;;;11.95;99.70;95308.50;5093084;28;1059;-56
2023/05/04 02:00:04;;;;;;;;;;;;;;;11.97;99.50;95304.66;5093066;28;1113;-56
2023/05/04 02:02:30;;;;;;;;;;;;;;;11.93;100.00;95297.13;5093078;28;1044;-56
2023/05/04 02:04:56;;;;;;;;;;;;;;;11.99;99.80;95301.81;5092954;28;1571;-56
2023/05/04 02:07:22;;;;;;;;;;;;;;;12.09;98.98;95302.50;5093170;28;1048;-56
2023/05/04 02:09:48;;;;;;;;;;;;;;;12.07;98.85;95296.47;5092950;28;1037;-56
2023/05/04 02:12:14;;;;;;;;;;;;;;;12.01;99.53;95300.66;5093018;28;1995;-56
2023/05/04 02:14:40;;;;;;;;;;;;;;;12.02;99.70;95302.31;5093001;28;1056;-56
2023/05/04 02:17:07;;;;;;;;;;;;;;;12.05;100.00;95298.47;5092926;28;970;-56
2023/05/04 02:19:33;;;;;;;;;;;;;;;12.06;98.96;95295.59;5092849;28;1119;-56
2023/05/04 02:21:59;;;;;;;;;;;;;;;12.02;99.89;95302.31;5095424;28;1037;-56
2023/05/04 02:24:25;;;;;;;;;;;;;;;12.02;99.44;95298.81;5096522;28;1231;-56
2023/05/04 02:26:51;;;;;;;;;;;;;;;12.01;98.95;95297.13;5096401;28;1150;-56
2023/05/04 02:29:17;;;;;;;;;;;;;;;12.00;99.55;95300.81;5096539;28;1091;-56
2023/05/04 02:31:43;;;;;;;;;;;;;;;12.01;100.00;95297.13;5096074;28;1926;-56
2023/05/04 02:34:09;;;;;;;;;;;;;;;12.04;100.00;95294.09;5096587;28;989;-56
2023/05/04 02:36:35;;;;;;;;;;;;;;;12.06;100.00;95294.78;5096490;28;973;-56
2023/05/04 02:39:01;;;;;;;;;;;;;;;12.11;99.83;95298.63;5096229;28;1081;-56
2023/05/04 02:41:27;;;;;;;;;;;;;;;12.11;99.85;95301.31;5096335;28;1048;-56
2023/05/04 02:43:53;;;;;;;;;;;;;;;12.14;99.10;95302.84;5096156;28;985;-56
2023/05/04 02:46:19;;;;;;;;;;;;;;;12.13;98.92;95298.47;5096083;28;1046;-56
2023/05/04 02:48:45;;;;;;;;;;;;;;;12.20;97.85;95304.00;5095938;28;1120;-56
2023/05/04 02:51:11;;;;;;;;;;;;;;;12.15;98.35;95304.50;5096061;28;1910;-56
2023/05/04 02:53:37;;;;;;;;;;;;;;;12.13;98.38;95303.84;5095846;28;1521;-56
2023/05/04 02:56:03;;;;;;;;;;;;;;;12.11;98.25;95292.44;5096008;28;969;-56
2023/05/04 02:58:29;;;;;;;;;;;;;;;12.09;98.80;95292.59;5095905;28;1036;-56
2023/05/04 03:00:55;;;;;;;;;;;;;;;12.13;97.95;95297.66;5095693;28;1041;-56
2023/05/04 03:03:21;;;;;;;;;;;;;;;12.24;96.68;95298.13;5095709;28;1139;-56
2023/05/04 03:05:47;;;;;;;;;;;;;;;12.30;95.88;95302.81;5095856;28;1059;-56
2023/05/04 03:08:13;;;;;;;;;;;;;;;12.26;96.00;95301.50;5095887;28;1149;-56
2023/05/04 03:10:39;;;;;;;;;;;;;;;12.29;95.47;95303.84;5095694;28;1203;-56
2023/05/04 03:13:05;;;;;;;;;;;;;;;12.22;96.10;95302.84;5095614;28;1972;-56
2023/05/04 03:15:32;;;;;;;;;;;;;;;12.16;96.87;95308.00;5095583;28;965;-56
2023/05/04 03:17:58;;;;;;;;;;;;;;;12.11;97.44;95305.84;5095536;28;1052;-56
2023/05/04 03:20:24;;;;;;;;;;;;;;;12.09;97.78;95311.38;5095672;28;1068;-56
2023/05/04 03:22:50;;;;;;;;;;;;;;;12.15;97.13;95317.91;5095534;28;1070;-56
2023/05/04 03:25:16;;;;;;;;;;;;;;;12.14;96.25;95316.25;5095205;28;1224;-56
2023/05/04 03:27:42;;;;;;;;;;;;;;;11.97;96.97;95318.06;5094187;28;1032;-56
2023/05/04 03:30:08;;;;;;;;;;;;;;;11.99;98.40;95323.25;5095266;28;1049;-56
2023/05/04 03:32:34;;;;;;;;;;;;;;;11.96;97.47;95326.28;5094717;28;1985;-57
2023/05/04 03:35:00;;;;;;;;;;;;;;;11.93;99.33;95323.91;5095383;28;1040;-56
2023/05/04 03:37:26;;;;;;;;;;;;;;;11.84;100.00;95325.72;5095287;28;1211;-56
2023/05/04 03:39:52;;;;;;;;;;;;;;;11.70;100.00;95330.72;5094990;28;983;-56
2023/05/04 03:42:18;;;;;;;;;;;;;;;11.66;100.00;95333.88;5093945;28;977;-56
2023/05/04 03:44:45;;;;;;;;;;;;;;;11.66;100.00;95328.50;5094921;28;1001;-56
2023/05/04 03:47:11;;;;;;;;;;;;;;;11.66;100.00;95336.53;5094885;28;1044;-56
2023/05/04 03:49:37;;;;;;;;;;;;;;;11.76;100.00;95339.94;5093864;28;993;-57
2023/05/04 03:52:03;;;;;;;;;;;;;;;11.72;100.00;95341.25;5094877;28;2000;-56
2023/05/04 03:54:29;;;;;;;;;;;;;;;11.70;100.00;95336.06;5094804;28;1048;-56
2023/05/04 03:56:55;;;;;;;;;;;;;;;11.75;100.00;95340.94;5094673;28;1092;-56
2023/05/04 03:59:21;;;;;;;;;;;;;;;11.73;100.00;95357.16;5093423;28;1045;-56
2023/05/04 04:01:47;;;;;;;;;;;;;;;11.72;100.00;95344.78;5094607;28;1049;-56
2023/05/04 04:04:13;;;;;;;;;;;;;;;11.81;100.00;95350.97;5094761;28;1066;-56
2023/05/04 04:06:39;;;;;;;;;;;;;;;11.89;100.00;95348.38;5094732;28;999;-57
2023/05/04 04:09:06;;;;;;;;;;;;;;;11.94;100.00;95353.22;5093469;28;1008;-57
2023/05/04 04:11:32;;;;;;;;;;;;;;;11.91;100.00;95358.91;5094456;28;1902;-57
2023/05/04 04:13:58;;;;;;;;;;;;;;;11.88;100.00;95361.91;5093067;28;1178;-57
2023/05/04 04:16:24;;;;;;;;;;;;;;;11.82;100.00;95360.72;5093042;28;1043;-58
2023/05/04 04:18:50;;;;;;;;;;;;;;;11.76;100.00;95361.38;5094523;28;1017;-57
2023/05/04 04:21:16;;;;;;;;;;;;;;;11.84;100.00;95356.03;5094187;28;1108;-57
2023/05/04 04:23:42;;;;;;;;;;;;;;;11.80;100.00;95362.72;5094086;28;1234;-58
2023/05/04 04:26:09;;;;;;;;;;;;;;;11.77;100.00;95368.38;5094348;28;974;-57
2023/05/04 04:28:35;;;;;;;;;;;;;;;11.86;100.00;95372.75;5094241;28;1424;-57
2023/05/04 04:31:02;;;;;;;;;;;;;;;11.84;100.00;95374.78;5093910;28;1990;-57
2023/05/04 04:33:28;;;;;;;;;;;;;;;11.95;100.00;95362.09;5094027;28;984;-57
2023/05/04 04:35:55;;;;;;;;;;;;;;;12.04;100.00;95375.34;5094268;28;1012;-57
2023/05/04 04:38:21;;;;;;;;;;;;;;;12.12;100.00;95374.50;5093905;28;1025;-57
2023/05/04 04:40:47;;;;;;;;;;;;;;;12.20;99.24;95373.69;5093877;28;1045;-57
2023/05/04 04:43:13;;;;;;;;;;;;;;;12.23;98.25;95387.59;5092184;28;1067;-57
2023/05/04 04:45:40;;;;;;;;;;;;;;;12.15;98.70;95390.28;5093760;28;988;-57
2023/05/04 04:48:06;;;;;;;;;;;;;;;12.11;99.77;95379.03;5094052;28;1044;-57
2023/05/04 04:50:32;;;;;;;;;;;;;;;12.05;100.00;95386.91;5093603;28;1160;-56
2023/05/04 04:52:58;;;;;;;;;;;;;;;11.97;100.00;95394.91;5093808;28;1902;-56
2023/05/04 04:55:24;;;;;;;;;;;;;;;11.93;100.00;95390.91;5093791;28;961;-55
2023/05/04 04:57:51;;;;;;;;;;;;;;;11.90;100.00;95397.44;5093752;28;981;-56
2023/05/04 05:00:18;;;;;;;;;;;;;;;11.94;100.00;95397.94;5093600;28;977;-55
2023/05/04 05:02:44;;;;;;;;;;;;;;;12.00;100.00;95399.97;5093849;28;1060;-56
2023/05/04 05:05:11;;;;;;;;;;;;;;;12.05;100.00;95398.47;5093715;28;985;-56
2023/05/04 05:07:37;;;;;;;;;;;;;;;12.05;100.00;95408.34;5093559;28;1112;-56
2023/05/04 05:10:03;;;;;;;;;;;;;;;12.05;100.00;95403.00;5093639;28;1048;-57
2023/05/04 05:12:30;;;;;;;;;;;;;;;12.07;100.00;95404.50;5093395;28;1999;-57
2023/05/04 05:14:56;;;;;;;;;;;;;;;12.15;100.00;95405.53;5093474;28;1015;-57
2023/05/04 05:17:22;;;;;;;;;;;;;;;12.26;100.00;95403.38;5092033;28;1123;-57
2023/05/04 05:19:48;;;;;;;;;;;;;;;12.34;100.00;95405.22;5093382;28;1066;-58
2023/05/04 05:22:15;;;;;;;;;;;;;;;12.31;100.00;95410.91;5093515;28;1041;-57
2023/05/04 05:24:41;;;;;;;;;;;;;;;12.33;100.00;95411.59;5093420;28;1215;-56
2023/05/04 05:27:07;;;;;;;;;;;;;;;12.30;99.84;95410.06;5093330;28;1024;-56
2023/05/04 05:29:34;;;;;;;;;;;;;;;12.29;99.94;95411.09;5093096;28;969;-56
2023/05/04 05:32:00;;;;;;;;;;;;;;;12.28;99.28;95414.75;5092950;28;1969;-56
2023/05/04 05:34:26;;;;;;;;;;;;;;;12.32;100.00;95415.28;5093109;28;1048;-56
2023/05/04 05:36:52;;;;;;;;;;;;;;;12.42;99.77;95415.13;5093197;28;1088;-56
2023/05/04 05:39:18;;;;;;;;;;;;;;;12.40;99.84;95411.75;5093099;28;1065;-57
2023/05/04 05:41:44;;;;;;;;;;;;;;;12.38;99.89;95416.44;5093202;28;1052;-56
2023/05/04 05:44:10;;;;;;;;;;;;;;;12.15;100.00;95386.75;5093043;28;1048;-56
2023/05/04 05:46:36;;;;;;;;;;;;;;;12.29;100.00;95412.91;5093378;28;961;-56
2023/05/04 05:49:04;;;;;;;;;;;;;;;12.25;100.00;95414.25;5093256;28;1005;-56
2023/05/04 05:51:30;;;;;;;;;;;;;;;12.32;100.00;95425.16;5092280;28;1987;-56
2023/05/04 05:53:56;;;;;;;;;;;;;;;12.38;100.00;95417.28;5093035;28;1085;-56
2023/05/04 05:56:22;;;;;;;;;;;;;;;12.49;100.00;95422.31;5094636;28;1124;-56
2023/05/04 05:58:51;;;;;;;;;;;;;;;12.32;100.00;95425.16;5095695;28;1017;-56
2023/05/04 06:01:17;;;;;;;;;;;;;;;12.24;100.00;95428.66;5096841;28;1046;-56
2023/05/04 06:03:43;;;;;;;;;;;;;;;12.27;100.00;95423.81;5097060;28;1059;-56
2023/05/04 06:06:09;;;;;;;;;;;;;;;12.27;100.00;95431.00;5096866;28;1115;-57
2023/05/04 06:08:36;;;;;;;;;;;;;;;12.28;100.00;95425.47;5096770;28;1044;-57
2023/05/04 06:11:02;;;;;;;;;;;;;;;12.22;100.00;95428.00;5096754;28;1890;-58
2023/05/04 06:13:28;;;;;;;;;;;;;;;12.27;100.00;95423.81;5096581;28;1021;-57
2023/05/04 06:15:54;;;;;;;;;;;;;;;12.43;100.00;95432.88;5096715;28;1561;-58
2023/05/04 06:18:20;;;;;;;;;;;;;;;12.63;100.00;95428.84;5096525;28;1117;-57
2023/05/04 06:20:46;;;;;;;;;;;;;;;12.67;100.00;95440.09;5096574;28;1057;-57
2023/05/04 06:23:13;;;;;;;;;;;;;;;12.86;100.00;95439.78;5096550;28;965;-57
2023/05/04 06:25:40;;;;;;;;;;;;;;;13.06;100.00;95437.56;5096426;28;1120;-57
2023/05/04 06:28:06;;;;;;;;;;;;;;;13.24;97.52;95431.16;5096484;28;957;-58
2023/05/04 06:30:32;;;;;;;;;;;;;;;13.46;94.98;95435.84;5093826;28;1880;-57
2023/05/04 06:32:58;;;;;;;;;;;;;;;13.66;96.85;95439.00;5096084;28;1913;-57
2023/05/04 06:35:24;;;;;;;;;;;;;;;13.70;97.07;95441.31;5096434;28;1027;-57
2023/05/04 06:37:51;;;;;;;;;;;;;;;13.51;95.65;95447.94;5096357;28;1013;-57
2023/05/04 06:40:17;;;;;;;;;;;;;;;13.35;96.86;95446.13;5096118;28;1081;-57
2023/05/04 06:42:43;;;;;;;;;;;;;;;13.48;96.13;95452.63;5095899;28;1059;-57
2023/05/04 06:45:09;;;;;;;;;;;;;;;13.56;90.37;95448.25;5096328;28;1009;-58
2023/05/04 06:47:36;;;;;;;;;;;;;;;13.72;92.47;95448.22;5096253;28;972;-58
2023/05/04 06:50:05;;;;;;;;;;;;;;;13.58;96.29;95451.59;5096050;28;1038;-58
2023/05/04 06:52:31;;;;;;;;;;;;;;;13.37;95.76;95450.31;5095657;28;1906;-58
2023/05/04 06:54:59;;;;;;;;;;;;;;;13.45;96.17;95450.31;5096040;28;1074;-58
2023/05/04 06:57:25;;;;;;;;;;;;;;;13.50;96.03;95452.47;5095816;28;973;-58
2023/05/04 06:59:52;;;;;;;;;;;;;;;13.54;96.10;95448.44;5095986;28;1052;-57
2023/05/04 07:02:18;;;;;;;;;;;;;;;13.62;96.10;95447.56;5095489;28;1087;-54
2023/05/04 07:04:44;;;;;;;;;;;;;;;13.64;96.31;95454.47;5095874;28;985;-56
2023/05/04 07:07:10;;;;;;;;;;;;;;;13.79;95.31;95446.53;5094030;28;1009;-56
2023/05/04 07:09:36;;;;;;;;;;;;;;;14.14;91.57;95447.03;5095689;28;957;-56
2023/05/04 07:12:03;;;;;;;;;;;;;;;14.38;89.25;95440.69;5095069;28;2000;-56
2023/05/04 07:14:29;;;;;;;;;;;;;;;14.23;89.17;95443.28;5095365;28;1062;-56
2023/05/04 07:16:55;;;;;;;;;;;;;;;14.08;92.90;95450.44;5095635;28;1059;-57
2023/05/04 07:19:21;;;;;;;;;;;;;;;14.12;89.41;95445.53;5095606;28;985;-57
2023/05/04 07:21:47;;;;;;;;;;;;;;;14.48;88.71;95445.81;5095161;28;1098;-54
2023/05/04 07:24:13;;;;;;;;;;;;;;;14.69;86.11;95449.75;5095103;28;1080;-57
2023/05/04 07:26:39;;;;;;;;;;;;;;;14.93;85.54;95433.41;5095318;28;1268;-57
2023/05/04 07:29:05;;;;;;;;;;;;;;;15.02;83.77;95436.88;5094343;28;1049;-57
2023/05/04 07:31:32;;;;;;;;;;;;;;;15.05;86.44;95436.50;5095014;28;1988;-58
2023/05/04 07:33:58;;;;;;;;;;;;;;;15.26;83.09;95434.97;5095088;28;1047;-57
2023/05/04 07:36:25;;;;;;;;;;;;;;;15.54;82.74;95436.03;5095183;28;1044;-57
2023/05/04 07:38:51;;;;;;;;;;;;;;;15.79;79.83;95441.19;5095103;28;1057;-57
2023/05/04 07:41:17;;;;;;;;;;;;;;;15.62;78.65;95440.50;5094899;28;1057;-58
2023/05/04 07:43:43;;;;;;;;;;;;;;;15.58;80.49;95449.97;5094793;28;1091;-58
2023/05/04 07:46:09;;;;;;;;;;;;;;;15.66;80.57;95438.28;5095164;28;999;-58
2023/05/04 07:48:35;;;;;;;;;;;;;;;15.70;81.37;95440.41;5094914;28;1552;-57
2023/05/04 07:51:01;;;;;;;;;;;;;;;15.76;83.09;95439.72;5094898;28;1992;-58
2023/05/04 07:53:27;;;;;;;;;;;;;;;15.49;81.87;95443.00;5094534;28;1442;-58
2023/05/04 07:55:53;;;;;;;;;;;;;;;15.40;83.45;95445.78;5094848;28;1107;-57
2023/05/04 07:58:19;;;;;;;;;;;;;;;15.20;80.38;95452.72;5093485;28;1069;-57
2023/05/04 08:00:45;;;;;;;;;;;;;;;15.15;80.47;95452.41;5093755;28;989;-57
2023/05/04 08:03:11;;;;;;;;;;;;;;;15.33;83.04;95452.09;5094384;28;1037;-57
2023/05/04 08:05:37;;;;;;;;;;;;;;;15.52;79.76;95450.72;5094725;28;1125;-57
2023/05/04 08:08:03;;;;;;;;;;;;;;;15.57;80.98;95453.69;5094611;28;973;-57
2023/05/04 08:10:29;;;;;;;;;;;;;;;15.54;81.17;95459.47;5094355;28;1113;-57
2023/05/04 08:12:55;;;;;;;;;;;;;;;15.54;80.36;95454.91;5094380;28;1999;-57
2023/05/04 08:15:22;;;;;;;;;;;;;;;15.68;76.35;95455.91;5094307;28;1049;-57
2023/05/04 08:17:48;;;;;;;;;;;;;;;15.66;77.03;95460.66;5094047;28;1105;-57
2023/05/04 08:20:14;;;;;;;;;;;;;;;15.86;75.78;95452.03;5092603;28;1041;-58
2023/05/04 08:22:40;;;;;;;;;;;;;;;15.97;78.42;95467.75;5094070;28;1232;-57
2023/05/04 08:25:38;;;;;;;;;;;;;;;15.86;78.79;95469.06;5072408;28;1591;-58
2023/05/04 08:28:05;;;;;;;;;;;;;;;15.95;78.82;95464.41;5091526;28;1312;-57
2023/05/04 08:30:32;;;;;;;;;;;;;;;15.71;76.09;95462.81;5094147;28;1085;-57
2023/05/04 08:32:59;;;;;;;;;;;;;;;15.64;78.25;95461.88;5093991;28;1918;-57
2023/05/04 08:35:26;;;;;;;;;;;;;;;15.55;77.33;95455.72;5094036;28;1043;-57
2023/05/04 08:37:52;;;;;;;;;;;;;;;15.74;77.25;95455.19;5094298;28;981;-57
2023/05/04 08:40:19;;;;;;;;;;;;;;;15.62;74.84;95448.59;5093947;28;1441;-57
2023/05/04 08:42:49;;;;;;;;;;;;;;;15.82;77.75;95443.47;5094052;28;1055;-58
2023/05/04 08:45:16;;;;;;;;;;;;;;;15.92;75.77;95440.53;5093952;28;1051;-57
2023/05/04 08:47:42;;;;;;;;;;;;;;;15.94;74.34;95444.69;5093886;28;990;-57
2023/05/04 08:50:09;;;;;;;;;;;;;;;16.01;76.34;95444.78;5093548;28;1362;-57
2023/05/04 08:52:36;;;;;;;;;;;;;;;16.25;75.95;95442.81;5093592;28;1983;-58
2023/05/04 08:55:04;;;;;;;;;;;;;;;16.28;70.37;95448.66;5093676;28;913;-59
2023/05/04 08:57:32;;;;;;;;;;;;;;;16.27;67.24;95440.75;5093770;28;1036;-59
2023/05/04 08:59:58;;;;;;;;;;;;;;;16.50;72.01;95446.81;5093384;28;1427;-59
2023/05/04 09:02:25;;;;;;;;;;;;;;;17.02;70.33;95439.50;5093472;28;1041;-59
2023/05/04 09:04:52;;;;;;;;;;;;;;;17.14;69.52;95443.31;5093536;28;1049;-58
2023/05/04 09:07:19;;;;;;;;;;;;;;;16.94;71.10;95442.31;5093757;28;1028;-59
2023/05/04 09:09:46;;;;;;;;;;;;;;;17.02;70.83;95444.06;5093494;28;1232;-59
2023/05/04 09:12:12;;;;;;;;;;;;;;;17.17;69.81;95442.13;5093564;28;1906;-59
2023/05/04 09:14:38;;;;;;;;;;;;;;;17.43;71.96;95444.19;5093507;28;1092;-59
2023/05/04 09:17:11;;;;;;;;;;;;;;;17.75;71.27;95442.72;5093533;28;1016;-59
2023/05/04 09:19:42;;;;;;;;;;;;;;;18.36;68.76;95430.38;5092371;28;1352;-59
2023/05/04 09:22:18;;;;;;;;;;;;;;;18.49;65.19;95427.69;5093517;28;1069;-59
2023/05/04 09:24:45;;;;;;;;;;;;;;;18.26;67.34;95432.63;5093594;28;1012;-59
2023/05/04 09:27:11;;;;;;;;;;;;;;;18.47;66.69;95431.66;5093200;28;1080;-59
2023/05/04 09:29:39;;;;;;;;;;;;;;;18.48;65.97;95417.94;5093613;28;1116;-58
2023/05/04 09:32:08;;;;;;;;;;;;;;;18.02;68.52;95424.00;5097386;28;1913;-57
2023/05/04 09:34:36;;;;;;;;;;;;;;;17.53;67.17;95425.75;5097640;28;985;-56
2023/05/04 09:37:02;;;;;;;;;;;;;;;17.31;67.29;95426.84;5097475;28;1045;-57
2023/05/04 09:39:29;;;;;;;;;;;;;;;17.42;65.81;95420.06;5096038;28;1171;-57
2023/05/04 09:41:55;;;;;;;;;;;;;;;17.46;65.81;95421.34;5097314;28;1897;-57
2023/05/04 09:44:22;;;;;;;;;;;;;;;17.37;63.20;95412.53;5097281;28;1012;-58
2023/05/04 09:46:55;;;;;;;;;;;;;;;17.37;64.16;95415.25;5096077;28;1116;-58
2023/05/04 09:49:28;;;;;;;;;;;;;;;17.26;65.01;95413.91;5096850;28;1069;-57
2023/05/04 09:51:55;;;;;;;;;;;;;;;17.34;63.64;95411.06;5097221;28;1913;-57
2023/05/04 09:54:22;;;;;;;;;;;;;;;17.29;67.56;95410.00;5097063;28;1108;-58
2023/05/04 09:56:50;;;;;;;;;;;;;;;17.41;66.91;95410.28;5097135;28;1063;-57
2023/05/04 09:59:16;;;;;;;;;;;;;;;17.79;67.14;95399.91;5096582;28;1089;-57
2023/05/04 10:01:43;;;;;;;;;;;;;;;18.40;64.65;95407.28;5097190;28;962;-57
2023/05/04 10:04:09;;;;;;;;;;;;;;;19.00;65.19;95399.28;5097046;28;1017;-57
2023/05/04 10:06:35;;;;;;;;;;;;;;;19.17;62.75;95388.03;5097009;28;1300;-58
2023/05/04 10:09:01;;;;;;;;;;;;;;;18.82;64.19;95389.06;5096778;28;1049;-57
2023/05/04 10:11:27;;;;;;;;;;;;;;;19.27;61.61;95389.31;5096754;28;1910;-58
2023/05/04 10:13:55;;;;;;;;;;;;;;;19.54;59.88;95397.41;5096740;28;1029;-58
2023/05/04 10:16:23;;;;;;;;;;;;;;;19.79;61.96;95388.63;5096818;28;1258;-58
2023/05/04 10:18:57;;;;;;;;;;;;;;;19.91;61.23;95386.91;5096531;28;1063;-58
2023/05/04 10:21:36;;;;;;;;;;;;;;;19.51;56.96;95386.97;5095264;28;1041;-57
2023/05/04 10:24:04;;;;;;;;;;;;;;;19.47;56.71;95383.84;5096632;28;1040;-57
2023/05/04 10:26:30;;;;;;;;;;;;;;;19.78;57.22;95385.06;5096227;28;1242;-57
2023/05/04 10:29:10;;;;;;;;;;;;;;;19.91;60.46;95378.75;5096247;28;1064;-58
2023/05/04 10:31:40;;;;;;;;;;;;;;;20.43;57.87;95379.59;5096313;28;1906;-57
2023/05/04 10:34:07;;;;;;;;;;;;;;;20.31;61.75;95375.88;5096598;28;1239;-58
2023/05/04 10:36:40;;;;;;;;;;;;;;;20.00;59.74;95371.22;5096347;28;1342;-57
2023/05/04 10:39:19;;;;;;;;;;;;;;;19.54;58.63;95372.13;5094963;28;1123;-57
2023/05/04 10:41:58;;;;;;;;;;;;;;;19.35;57.59;95368.41;5095200;28;1338;-57
2023/05/04 10:44:25;;;;;;;;;;;;;;;19.17;60.80;95364.47;5094948;28;1076;-57
2023/05/04 10:46:57;;;;;;;;;;;;;;;19.29;63.83;95364.66;5096104;28;1132;-57
2023/05/04 10:49:23;;;;;;;;;;;;;;;19.08;61.17;95363.00;5095676;28;1880;-57
2023/05/04 10:51:50;;;;;;;;;;;;;;;18.86;64.56;95363.22;5095901;28;1993;-57
2023/05/04 10:54:20;;;;;;;;;;;;;;;18.75;62.63;95363.00;5095911;28;1908;-57
2023/05/04 10:56:46;;;;;;;;;;;;;;;18.79;62.89;95365.06;5096142;28;1333;-57
2023/05/04 10:59:13;;;;;;;;;;;;;;;18.52;58.71;95359.63;5095620;28;1030;-57
2023/05/04 11:01:46;;;;;;;;;;;;;;;18.52;60.46;95358.78;5095822;28;1062;-57
2023/05/04 11:04:21;;;;;;;;;;;;;;;18.98;59.79;95362.63;5095682;28;1050;-57
2023/05/04 11:07:07;;;;;;;;;;;;;;;19.32;63.64;95361.53;5095976;28;1036;-57
2023/05/04 11:09:37;;;;;;;;;;;;;;;19.16;59.42;95359.25;5095358;28;1237;-57
2023/05/04 11:12:03;;;;;;;;;;;;;;;18.99;61.04;95358.84;5095556;28;1910;-57
2023/05/04 11:14:29;;;;;;;;;;;;;;;18.77;61.66;95356.31;5094371;28;974;-57
2023/05/04 11:17:06;;;;;;;;;;;;;;;18.78;61.38;95358.00;5095447;28;1062;-57
2023/05/04 11:19:33;;;;;;;;;;;;;;;18.83;62.34;95355.50;5095100;28;1001;-57
2023/05/04 11:22:00;;;;;;;;;;;;;;;18.44;59.37;95354.41;5095578;28;969;-57
2023/05/04 11:24:44;;;;;;;;;;;;;;;18.42;58.78;95355.63;5095237;28;1183;-57
2023/05/04 11:27:28;;;;;;;;;;;;;;;18.29;59.29;95356.44;5094504;28;1343;-57
2023/05/04 11:29:59;;;;;;;;;;;;;;;18.18;60.73;95354.34;5095400;28;1021;-57
2023/05/04 11:32:35;;;;;;;;;;;;;;;18.50;62.26;95350.03;5093879;28;1914;-57
2023/05/04 11:35:01;;;;;;;;;;;;;;;18.81;64.54;95356.78;5095250;28;1057;-57
2023/05/04 11:37:28;;;;;;;;;;;;;;;19.09;60.88;95353.84;5095148;28;1023;-57
2023/05/04 11:39:54;;;;;;;;;;;;;;;19.19;61.06;95364.28;5095124;28;1080;-57
2023/05/04 11:42:21;;;;;;;;;;;;;;;19.04;62.95;95361.78;5095263;28;1024;-57
2023/05/04 11:44:48;;;;;;;;;;;;;;;19.09;58.19;95359.28;5095262;28;1033;-57
2023/05/04 11:47:14;;;;;;;;;;;;;;;18.99;60.29;95361.56;5094907;28;1124;-57
2023/05/04 11:49:41;;;;;;;;;;;;;;;19.60;60.03;95346.91;5094970;28;1104;-57
2023/05/04 11:52:07;;;;;;;;;;;;;;;19.70;60.48;95348.09;5094803;28;1913;-56
2023/05/04 11:54:33;;;;;;;;;;;;;;;19.61;62.75;95351.25;5094923;28;966;-57
2023/05/04 11:57:02;;;;;;;;;;;;;;;19.61;59.63;95346.66;5094791;28;1069;-57
2023/05/04 11:59:29;;;;;;;;;;;;;;;19.49;60.50;95338.38;5094780;28;980;-53
2023/05/04 12:01:56;;;;;;;;;;;;;;;19.48;59.00;95341.28;5094828;28;1060;-58
2023/05/04 12:04:22;;;;;;;;;;;;;;;19.72;59.99;95341.66;5094625;28;1092;-59
2023/05/04 12:06:49;;;;;;;;;;;;;;;19.59;59.48;95342.50;5094653;28;977;-56
2023/05/04 12:09:15;;;;;;;;;;;;;;;19.29;54.32;95341.13;5094726;28;953;-58
2023/05/04 12:11:41;;;;;;;;;;;;;;;18.96;59.74;95335.72;5094669;28;1997;-58
2023/05/04 12:14:09;;;;;;;;;;;;;;;19.13;61.69;95332.59;5094485;28;1041;-57
2023/05/04 12:16:35;;;;;;;;;;;;;;;18.87;58.98;95326.97;5093329;28;1222;-57
2023/05/04 12:19:09;;;;;;;;;;;;;;;18.95;59.90;95331.34;5094481;28;1028;-57
2023/05/04 12:21:36;;;;;;;;;;;;;;;19.06;57.94;95330.69;5094617;28;1033;-57
2023/05/04 12:24:02;;;;;;;;;;;;;;;18.85;58.87;95329.03;5094303;28;1061;-57
2023/05/04 12:26:28;;;;;;;;;;;;;;;18.98;59.27;95327.38;5094120;28;1243;-55
2023/05/04 12:28:55;;;;;;;;;;;;;;;18.87;57.70;95321.53;5094365;28;977;-57
2023/05/04 12:31:22;;;;;;;;;;;;;;;18.87;59.15;95321.53;5094064;28;1914;-57
2023/05/04 12:33:48;;;;;;;;;;;;;;;18.71;58.44;95319.22;5094119;28;1023;-56
2023/05/04 12:36:14;;;;;;;;;;;;;;;18.84;58.03;95327.41;5094271;28;1005;-57
2023/05/04 12:38:41;;;;;;;;;;;;;;;18.62;60.73;95310.47;5094235;28;981;-56
2023/05/04 12:41:09;;;;;;;;;;;;;;;18.54;59.77;95316.91;5094235;28;969;-57
2023/05/04 12:43:35;;;;;;;;;;;;;;;18.58;62.56;95308.41;5094002;28;1044;-56
2023/05/04 12:46:02;;;;;;;;;;;;;;;18.57;60.58;95310.25;5093821;28;1120;-57
2023/05/04 12:48:30;;;;;;;;;;;;;;;18.60;63.23;95307.13;5093616;28;1092;-56
2023/05/04 12:50:57;;;;;;;;;;;;;;;18.61;60.70;95308.81;5092854;28;1001;-57
2023/05/04 12:53:26;;;;;;;;;;;;;;;18.35;60.05;95309.63;5093835;28;1989;-56